sensor_id;sensor_type;location;lat;lon;timestamp;noise_LAeq;noise_LA_min;noise_LA_max;noise_LA01;noise_LA95
74470;Laerm;62918;55.706;37.816;2024-03-22T00:00:24;58.87;46.44;71.38;;
74470;Laerm;62918;55.706;37.816;2024-03-22T00:00:54;54.60;47.33;61.83;;
74470;Laerm;62918;55.706;37.816;2024-03-22T00:01:25;53.54;47.62;60.66;;
74470;Laerm;62918;55.706;37.816;2024-03-22T00:01:56;51.03;44.49;61.14;;
74470;Laerm;62918;55.706;37.816;2024-03-22T00:02:26;49.79;45.63;56.67;;
74470;Laerm;62918;55.706;37.816;2024-03-22T00:02:57;51.03;46.41;60.46;;
74470;Laerm;62918;55.706;37.816;2024-03-22T00:03:27;55.17;48.02;65.73;;
74470;Laerm;62918;55.706;37.816;2024-03-22T00:03:59;55.91;48.94;61.25;;
74470;Laerm;62918;55.706;37.816;2024-03-22T00:04:30;58.37;47.04;66.12;;
74470;Laerm;62918;55.706;37.816;2024-03-22T00:05:00;53.78;47.21;60.59;;
74470;Laerm;62918;55.706;37.816;2024-03-22T00:05:33;56.10;47.81;61.46;;
74470;Laerm;62918;55.706;37.816;2024-03-22T00:06:04;59.43;48.31;70.13;;
74470;Laerm;62918;55.706;37.816;2024-03-22T00:06:35;56.15;46.92;68.56;;
74470;Laerm;62918;55.706;37.816;2024-03-22T00:07:05;56.31;46.87;63.25;;
74470;Laerm;62918;55.706;37.816;2024-03-22T00:07:36;52.64;46.29;58.90;;
74470;Laerm;62918;55.706;37.816;2024-03-22T00:08:07;54.99;46.13;62.59;;
74470;Laerm;62918;55.706;37.816;2024-03-22T00:08:39;53.13;45.29;62.49;;
74470;Laerm;62918;55.706;37.816;2024-03-22T00:09:10;54.83;47.78;60.99;;
74470;Laerm;62918;55.706;37.816;2024-03-22T00:09:41;61.66;52.20;75.05;;
74470;Laerm;62918;55.706;37.816;2024-03-22T00:10:11;62.94;54.30;69.95;;
74470;Laerm;62918;55.706;37.816;2024-03-22T00:10:43;54.17;47.00;59.67;;
74470;Laerm;62918;55.706;37.816;2024-03-22T00:11:13;48.94;45.21;54.32;;
74470;Laerm;62918;55.706;37.816;2024-03-22T00:11:44;48.68;43.95;53.80;;
74470;Laerm;62918;55.706;37.816;2024-03-22T00:12:15;46.95;43.81;55.99;;
74470;Laerm;62918;55.706;37.816;2024-03-22T00:12:45;48.52;44.95;57.41;;
74470;Laerm;62918;55.706;37.816;2024-03-22T00:13:16;51.59;46.41;55.51;;
74470;Laerm;62918;55.706;37.816;2024-03-22T00:13:46;62.44;49.48;70.57;;
74470;Laerm;62918;55.706;37.816;2024-03-22T00:14:17;53.73;49.19;58.67;;
74470;Laerm;62918;55.706;37.816;2024-03-22T00:14:47;53.45;46.92;60.10;;
74470;Laerm;62918;55.706;37.816;2024-03-22T00:15:18;54.30;45.77;62.74;;
74470;Laerm;62918;55.706;37.816;2024-03-22T00:15:48;56.78;48.55;65.20;;
74470;Laerm;62918;55.706;37.816;2024-03-22T00:16:19;56.97;50.53;64.45;;
74470;Laerm;62918;55.706;37.816;2024-03-22T00:16:50;53.78;44.88;62.06;;
74470;Laerm;62918;55.706;37.816;2024-03-22T00:17:21;48.81;44.63;53.63;;
74470;Laerm;62918;55.706;37.816;2024-03-22T00:17:51;54.32;47.05;64.30;;
74470;Laerm;62918;55.706;37.816;2024-03-22T00:18:22;51.19;46.22;57.88;;
74470;Laerm;62918;55.706;37.816;2024-03-22T00:18:52;55.69;45.70;65.35;;
74470;Laerm;62918;55.706;37.816;2024-03-22T00:19:23;50.47;45.31;56.70;;
74470;Laerm;62918;55.706;37.816;2024-03-22T00:19:53;50.32;45.07;59.18;;
74470;Laerm;62918;55.706;37.816;2024-03-22T00:20:24;47.81;44.24;54.48;;
74470;Laerm;62918;55.706;37.816;2024-03-22T00:20:54;55.53;44.59;64.17;;
74470;Laerm;62918;55.706;37.816;2024-03-22T00:21:25;49.83;44.93;60.09;;
74470;Laerm;62918;55.706;37.816;2024-03-22T00:21:56;49.81;44.42;56.65;;
74470;Laerm;62918;55.706;37.816;2024-03-22T00:22:27;52.62;47.07;56.61;;
74470;Laerm;62918;55.706;37.816;2024-03-22T00:22:57;52.73;45.80;61.29;;
74470;Laerm;62918;55.706;37.816;2024-03-22T00:23:28;53.59;46.13;60.20;;
74470;Laerm;62918;55.706;37.816;2024-03-22T00:23:59;48.19;45.26;51.31;;
74470;Laerm;62918;55.706;37.816;2024-03-22T00:24:31;48.94;45.83;52.64;;
74470;Laerm;62918;55.706;37.816;2024-03-22T00:25:01;52.30;46.66;58.98;;
74470;Laerm;62918;55.706;37.816;2024-03-22T00:25:32;62.29;49.09;74.06;;
74470;Laerm;62918;55.706;37.816;2024-03-22T00:26:03;58.74;55.48;60.97;;
74470;Laerm;62918;55.706;37.816;2024-03-22T00:26:33;62.88;49.31;75.61;;
74470;Laerm;62918;55.706;37.816;2024-03-22T00:27:04;51.23;45.54;57.12;;
74470;Laerm;62918;55.706;37.816;2024-03-22T00:27:34;58.97;45.35;66.60;;
74470;Laerm;62918;55.706;37.816;2024-03-22T00:28:05;59.33;47.05;67.32;;
74470;Laerm;62918;55.706;37.816;2024-03-22T00:28:36;53.03;45.40;61.09;;
74470;Laerm;62918;55.706;37.816;2024-03-22T00:29:06;47.08;43.22;50.54;;
74470;Laerm;62918;55.706;37.816;2024-03-22T00:29:37;47.51;43.73;51.53;;
74470;Laerm;62918;55.706;37.816;2024-03-22T00:30:09;49.87;45.15;55.41;;
74470;Laerm;62918;55.706;37.816;2024-03-22T00:30:39;49.51;44.04;59.02;;
74470;Laerm;62918;55.706;37.816;2024-03-22T00:31:10;49.26;45.24;55.63;;
74470;Laerm;62918;55.706;37.816;2024-03-22T00:31:40;51.25;45.36;57.12;;
74470;Laerm;62918;55.706;37.816;2024-03-22T00:32:11;47.27;44.30;50.30;;
74470;Laerm;62918;55.706;37.816;2024-03-22T00:32:41;46.81;43.97;50.14;;
74470;Laerm;62918;55.706;37.816;2024-03-22T00:33:14;48.93;45.71;52.83;;
74470;Laerm;62918;55.706;37.816;2024-03-22T00:33:45;47.35;44.94;50.45;;
74470;Laerm;62918;55.706;37.816;2024-03-22T00:34:15;49.73;45.59;55.68;;
74470;Laerm;62918;55.706;37.816;2024-03-22T00:34:46;47.39;43.71;50.83;;
74470;Laerm;62918;55.706;37.816;2024-03-22T00:35:17;46.38;42.95;49.22;;
74470;Laerm;62918;55.706;37.816;2024-03-22T00:35:47;49.76;42.43;56.27;;
74470;Laerm;62918;55.706;37.816;2024-03-22T00:36:18;47.68;43.95;53.83;;
74470;Laerm;62918;55.706;37.816;2024-03-22T00:36:48;49.00;44.46;55.18;;
74470;Laerm;62918;55.706;37.816;2024-03-22T00:37:19;48.54;45.04;53.16;;
74470;Laerm;62918;55.706;37.816;2024-03-22T00:37:49;57.37;48.47;66.48;;
74470;Laerm;62918;55.706;37.816;2024-03-22T00:38:20;54.73;46.84;69.30;;
74470;Laerm;62918;55.706;37.816;2024-03-22T00:38:51;57.80;47.85;78.88;;
74470;Laerm;62918;55.706;37.816;2024-03-22T00:39:21;65.82;48.34;76.97;;
74470;Laerm;62918;55.706;37.816;2024-03-22T00:39:51;53.63;48.94;64.81;;
74470;Laerm;62918;55.706;37.816;2024-03-22T00:40:22;49.72;45.20;53.97;;
74470;Laerm;62918;55.706;37.816;2024-03-22T00:40:52;52.12;46.88;56.55;;
74470;Laerm;62918;55.706;37.816;2024-03-22T00:41:23;48.09;45.35;50.76;;
74470;Laerm;62918;55.706;37.816;2024-03-22T00:41:53;52.14;44.28;56.81;;
74470;Laerm;62918;55.706;37.816;2024-03-22T00:42:24;49.27;44.96;54.09;;
74470;Laerm;62918;55.706;37.816;2024-03-22T00:42:55;47.70;45.19;51.01;;
74470;Laerm;62918;55.706;37.816;2024-03-22T00:43:25;51.15;44.83;56.10;;
74470;Laerm;62918;55.706;37.816;2024-03-22T00:43:56;47.88;44.94;52.03;;
74470;Laerm;62918;55.706;37.816;2024-03-22T00:44:26;49.90;46.26;59.38;;
74470;Laerm;62918;55.706;37.816;2024-03-22T00:44:57;57.33;48.64;64.99;;
74470;Laerm;62918;55.706;37.816;2024-03-22T00:45:28;60.41;53.06;65.66;;
74470;Laerm;62918;55.706;37.816;2024-03-22T00:45:58;57.99;49.95;68.61;;
74470;Laerm;62918;55.706;37.816;2024-03-22T00:46:29;59.84;49.40;69.90;;
74470;Laerm;62918;55.706;37.816;2024-03-22T00:46:59;62.31;47.08;74.53;;
74470;Laerm;62918;55.706;37.816;2024-03-22T00:47:32;61.89;49.16;72.09;;
74470;Laerm;62918;55.706;37.816;2024-03-22T00:48:03;55.55;45.65;68.46;;
74470;Laerm;62918;55.706;37.816;2024-03-22T00:48:34;62.45;44.49;73.45;;
74470;Laerm;62918;55.706;37.816;2024-03-22T00:49:06;50.19;44.35;65.69;;
74470;Laerm;62918;55.706;37.816;2024-03-22T00:49:36;53.69;43.73;64.93;;
74470;Laerm;62918;55.706;37.816;2024-03-22T00:50:07;47.57;42.55;53.79;;
74470;Laerm;62918;55.706;37.816;2024-03-22T00:50:37;47.01;43.81;51.39;;
74470;Laerm;62918;55.706;37.816;2024-03-22T00:51:08;51.93;45.10;58.65;;
74470;Laerm;62918;55.706;37.816;2024-03-22T00:51:38;47.78;45.05;53.20;;
74470;Laerm;62918;55.706;37.816;2024-03-22T00:52:09;48.89;45.83;54.86;;
74470;Laerm;62918;55.706;37.816;2024-03-22T00:52:39;50.43;44.00;59.22;;
74470;Laerm;62918;55.706;37.816;2024-03-22T00:53:11;50.89;45.81;61.38;;
74470;Laerm;62918;55.706;37.816;2024-03-22T00:53:42;62.18;45.97;73.74;;
74470;Laerm;62918;55.706;37.816;2024-03-22T00:54:12;55.90;45.13;68.45;;
74470;Laerm;62918;55.706;37.816;2024-03-22T00:54:43;49.37;45.30;53.19;;
74470;Laerm;62918;55.706;37.816;2024-03-22T00:55:13;50.60;44.94;61.73;;
74470;Laerm;62918;55.706;37.816;2024-03-22T00:55:45;49.04;43.63;55.91;;
74470;Laerm;62918;55.706;37.816;2024-03-22T00:56:16;47.09;44.37;50.18;;
74470;Laerm;62918;55.706;37.816;2024-03-22T00:56:47;46.52;43.69;49.59;;
74470;Laerm;62918;55.706;37.816;2024-03-22T00:57:17;53.50;45.73;58.45;;
74470;Laerm;62918;55.706;37.816;2024-03-22T00:57:48;49.14;45.58;52.39;;
74470;Laerm;62918;55.706;37.816;2024-03-22T00:58:18;57.56;48.81;62.31;;
74470;Laerm;62918;55.706;37.816;2024-03-22T00:58:49;58.92;48.43;68.91;;
74470;Laerm;62918;55.706;37.816;2024-03-22T00:59:20;50.03;45.67;59.09;;
74470;Laerm;62918;55.706;37.816;2024-03-22T00:59:50;61.41;50.65;69.00;;
74470;Laerm;62918;55.706;37.816;2024-03-22T01:00:21;53.11;46.55;61.16;;
74470;Laerm;62918;55.706;37.816;2024-03-22T01:00:52;59.72;48.89;67.29;;
74470;Laerm;62918;55.706;37.816;2024-03-22T01:01:22;57.79;48.24;65.86;;
74470;Laerm;62918;55.706;37.816;2024-03-22T01:01:53;52.06;45.04;62.40;;
74470;Laerm;62918;55.706;37.816;2024-03-22T01:02:23;53.80;45.95;62.39;;
74470;Laerm;62918;55.706;37.816;2024-03-22T01:02:54;59.26;49.13;64.38;;
74470;Laerm;62918;55.706;37.816;2024-03-22T01:03:24;56.19;46.68;63.60;;
74470;Laerm;62918;55.706;37.816;2024-03-22T01:03:55;52.58;46.91;57.23;;
74470;Laerm;62918;55.706;37.816;2024-03-22T01:04:25;50.22;44.02;56.92;;
74470;Laerm;62918;55.706;37.816;2024-03-22T01:04:57;58.12;48.24;68.13;;
74470;Laerm;62918;55.706;37.816;2024-03-22T01:05:28;51.50;44.43;59.79;;
74470;Laerm;62918;55.706;37.816;2024-03-22T01:05:58;51.83;44.47;56.96;;
74470;Laerm;62918;55.706;37.816;2024-03-22T01:06:29;54.93;44.43;61.84;;
74470;Laerm;62918;55.706;37.816;2024-03-22T01:06:59;50.10;45.32;56.11;;
74470;Laerm;62918;55.706;37.816;2024-03-22T01:07:30;54.95;46.81;60.44;;
74470;Laerm;62918;55.706;37.816;2024-03-22T01:08:00;57.48;47.27;64.13;;
74470;Laerm;62918;55.706;37.816;2024-03-22T01:08:31;50.29;45.94;54.72;;
74470;Laerm;62918;55.706;37.816;2024-03-22T01:09:01;49.95;45.70;54.67;;
74470;Laerm;62918;55.706;37.816;2024-03-22T01:09:33;47.57;44.63;50.85;;
74470;Laerm;62918;55.706;37.816;2024-03-22T01:10:04;48.83;45.31;53.89;;
74470;Laerm;62918;55.706;37.816;2024-03-22T01:10:35;50.65;46.95;55.61;;
74470;Laerm;62918;55.706;37.816;2024-03-22T01:11:05;67.84;51.32;77.62;;
74470;Laerm;62918;55.706;37.816;2024-03-22T01:11:36;63.21;48.89;74.86;;
74470;Laerm;62918;55.706;37.816;2024-03-22T01:12:08;55.74;49.15;62.17;;
74470;Laerm;62918;55.706;37.816;2024-03-22T01:12:39;53.17;47.97;58.96;;
74470;Laerm;62918;55.706;37.816;2024-03-22T01:13:10;50.61;47.09;56.24;;
74470;Laerm;62918;55.706;37.816;2024-03-22T01:13:40;49.83;47.24;52.41;;
74470;Laerm;62918;55.706;37.816;2024-03-22T01:14:11;53.41;47.52;60.71;;
74470;Laerm;62918;55.706;37.816;2024-03-22T01:14:41;54.09;48.60;63.63;;
74470;Laerm;62918;55.706;37.816;2024-03-22T01:15:12;52.86;48.92;57.80;;
74470;Laerm;62918;55.706;37.816;2024-03-22T01:15:42;58.74;50.87;66.15;;
74470;Laerm;62918;55.706;37.816;2024-03-22T01:16:13;53.24;49.87;56.70;;
74470;Laerm;62918;55.706;37.816;2024-03-22T01:16:43;54.20;48.92;63.58;;
74470;Laerm;62918;55.706;37.816;2024-03-22T01:17:14;51.80;47.39;58.07;;
74470;Laerm;62918;55.706;37.816;2024-03-22T01:17:44;52.50;47.70;57.99;;
74470;Laerm;62918;55.706;37.816;2024-03-22T01:18:15;57.33;52.45;63.50;;
74470;Laerm;62918;55.706;37.816;2024-03-22T01:18:45;55.84;49.81;61.85;;
74470;Laerm;62918;55.706;37.816;2024-03-22T01:19:16;55.35;49.67;64.79;;
74470;Laerm;62918;55.706;37.816;2024-03-22T01:19:47;53.38;48.76;58.04;;
74470;Laerm;62918;55.706;37.816;2024-03-22T01:20:17;55.95;48.58;66.54;;
74470;Laerm;62918;55.706;37.816;2024-03-22T01:20:48;55.45;51.08;64.83;;
74470;Laerm;62918;55.706;37.816;2024-03-22T01:21:18;62.31;50.71;70.62;;
74470;Laerm;62918;55.706;37.816;2024-03-22T01:21:49;54.43;47.84;63.51;;
74470;Laerm;62918;55.706;37.816;2024-03-22T01:22:20;55.88;46.52;61.65;;
74470;Laerm;62918;55.706;37.816;2024-03-22T01:22:50;48.57;45.65;53.58;;
74470;Laerm;62918;55.706;37.816;2024-03-22T01:23:21;48.61;44.42;52.37;;
74470;Laerm;62918;55.706;37.816;2024-03-22T01:23:52;54.08;44.90;62.80;;
74470;Laerm;62918;55.706;37.816;2024-03-22T01:24:22;48.49;44.82;54.72;;
74470;Laerm;62918;55.706;37.816;2024-03-22T01:24:53;47.33;44.12;52.29;;
74470;Laerm;62918;55.706;37.816;2024-03-22T01:25:24;51.98;46.50;57.89;;
74470;Laerm;62918;55.706;37.816;2024-03-22T01:25:54;48.65;45.22;54.02;;
74470;Laerm;62918;55.706;37.816;2024-03-22T01:26:25;58.32;46.45;67.83;;
74470;Laerm;62918;55.706;37.816;2024-03-22T01:26:55;46.99;44.22;50.18;;
74470;Laerm;62918;55.706;37.816;2024-03-22T01:27:26;50.91;44.55;56.37;;
74470;Laerm;62918;55.706;37.816;2024-03-22T01:27:56;55.62;49.97;60.78;;
74470;Laerm;62918;55.706;37.816;2024-03-22T01:28:27;51.65;43.93;57.86;;
74470;Laerm;62918;55.706;37.816;2024-03-22T01:28:57;50.36;45.62;60.22;;
74470;Laerm;62918;55.706;37.816;2024-03-22T01:29:28;63.28;47.63;70.23;;
74470;Laerm;62918;55.706;37.816;2024-03-22T01:30:02;55.04;50.63;61.62;;
74470;Laerm;62918;55.706;37.816;2024-03-22T01:30:32;56.13;49.87;61.83;;
74470;Laerm;62918;55.706;37.816;2024-03-22T01:31:04;49.51;45.45;52.84;;
74470;Laerm;62918;55.706;37.816;2024-03-22T01:31:35;52.73;45.78;60.97;;
74470;Laerm;62918;55.706;37.816;2024-03-22T01:32:05;50.52;46.62;56.28;;
74470;Laerm;62918;55.706;37.816;2024-03-22T01:32:36;48.26;44.62;53.23;;
74470;Laerm;62918;55.706;37.816;2024-03-22T01:33:07;53.89;46.41;63.16;;
74470;Laerm;62918;55.706;37.816;2024-03-22T01:33:37;51.43;45.85;56.98;;
74470;Laerm;62918;55.706;37.816;2024-03-22T01:34:08;48.69;45.30;51.95;;
74470;Laerm;62918;55.706;37.816;2024-03-22T01:34:38;50.68;46.08;58.14;;
74470;Laerm;62918;55.706;37.816;2024-03-22T01:35:09;54.91;47.76;61.72;;
74470;Laerm;62918;55.706;37.816;2024-03-22T01:35:39;50.69;46.32;64.83;;
74470;Laerm;62918;55.706;37.816;2024-03-22T01:36:10;55.22;46.58;63.03;;
74470;Laerm;62918;55.706;37.816;2024-03-22T01:36:40;50.97;47.09;57.56;;
74470;Laerm;62918;55.706;37.816;2024-03-22T01:37:11;55.91;48.54;61.87;;
74470;Laerm;62918;55.706;37.816;2024-03-22T01:37:42;59.03;48.96;79.25;;
74470;Laerm;62918;55.706;37.816;2024-03-22T01:38:12;60.90;50.83;68.51;;
74470;Laerm;62918;55.706;37.816;2024-03-22T01:38:43;65.29;50.83;77.66;;
74470;Laerm;62918;55.706;37.816;2024-03-22T01:39:13;60.19;46.20;70.63;;
74470;Laerm;62918;55.706;37.816;2024-03-22T01:39:45;59.90;45.67;69.41;;
74470;Laerm;62918;55.706;37.816;2024-03-22T01:40:15;55.11;48.32;64.59;;
74470;Laerm;62918;55.706;37.816;2024-03-22T01:40:46;60.34;51.20;66.31;;
74470;Laerm;62918;55.706;37.816;2024-03-22T01:41:16;51.92;47.21;55.96;;
74470;Laerm;62918;55.706;37.816;2024-03-22T01:41:48;56.72;47.84;65.40;;
74470;Laerm;62918;55.706;37.816;2024-03-22T01:42:19;56.44;49.18;61.86;;
74470;Laerm;62918;55.706;37.816;2024-03-22T01:42:53;51.11;48.76;55.46;;
74470;Laerm;62918;55.706;37.816;2024-03-22T01:43:24;54.58;47.28;60.40;;
74470;Laerm;62918;55.706;37.816;2024-03-22T01:43:54;55.58;47.24;68.29;;
74470;Laerm;62918;55.706;37.816;2024-03-22T01:44:29;53.18;47.42;59.70;;
74470;Laerm;62918;55.706;37.816;2024-03-22T01:44:59;57.03;49.38;62.71;;
74470;Laerm;62918;55.706;37.816;2024-03-22T01:45:32;52.67;48.01;56.79;;
74470;Laerm;62918;55.706;37.816;2024-03-22T01:46:04;57.69;50.80;65.68;;
74470;Laerm;62918;55.706;37.816;2024-03-22T01:46:35;51.82;45.65;57.03;;
74470;Laerm;62918;55.706;37.816;2024-03-22T01:47:06;56.32;47.48;65.59;;
74470;Laerm;62918;55.706;37.816;2024-03-22T01:47:37;49.46;46.20;52.40;;
74470;Laerm;62918;55.706;37.816;2024-03-22T01:48:08;52.56;46.50;61.05;;
74470;Laerm;62918;55.706;37.816;2024-03-22T01:48:39;54.88;47.52;62.92;;
74470;Laerm;62918;55.706;37.816;2024-03-22T01:49:11;55.46;46.65;61.42;;
74470;Laerm;62918;55.706;37.816;2024-03-22T01:49:43;56.75;47.97;61.97;;
74470;Laerm;62918;55.706;37.816;2024-03-22T01:50:14;52.16;46.63;57.25;;
74470;Laerm;62918;55.706;37.816;2024-03-22T01:50:45;50.39;46.12;55.60;;
74470;Laerm;62918;55.706;37.816;2024-03-22T01:51:17;52.95;47.50;59.58;;
74470;Laerm;62918;55.706;37.816;2024-03-22T01:51:48;53.86;48.21;62.08;;
74470;Laerm;62918;55.706;37.816;2024-03-22T01:52:19;49.32;46.33;52.98;;
74470;Laerm;62918;55.706;37.816;2024-03-22T01:52:50;54.18;46.95;64.81;;
74470;Laerm;62918;55.706;37.816;2024-03-22T01:53:22;49.87;45.48;54.78;;
74470;Laerm;62918;55.706;37.816;2024-03-22T01:53:53;49.38;45.21;54.71;;
74470;Laerm;62918;55.706;37.816;2024-03-22T01:54:25;50.59;46.62;54.59;;
74470;Laerm;62918;55.706;37.816;2024-03-22T01:54:55;48.65;45.75;52.28;;
74470;Laerm;62918;55.706;37.816;2024-03-22T01:55:26;50.53;46.41;55.99;;
74470;Laerm;62918;55.706;37.816;2024-03-22T01:55:57;58.50;49.38;66.22;;
74470;Laerm;62918;55.706;37.816;2024-03-22T01:56:28;59.67;49.28;67.08;;
74470;Laerm;62918;55.706;37.816;2024-03-22T01:57:00;57.00;49.65;65.46;;
74470;Laerm;62918;55.706;37.816;2024-03-22T01:57:32;54.73;48.93;60.53;;
74470;Laerm;62918;55.706;37.816;2024-03-22T01:58:03;51.73;46.07;58.36;;
74470;Laerm;62918;55.706;37.816;2024-03-22T01:58:34;55.28;47.84;60.38;;
74470;Laerm;62918;55.706;37.816;2024-03-22T01:59:05;50.48;46.34;56.21;;
74470;Laerm;62918;55.706;37.816;2024-03-22T01:59:36;53.87;45.39;60.59;;
74470;Laerm;62918;55.706;37.816;2024-03-22T02:00:07;48.69;45.67;52.14;;
74470;Laerm;62918;55.706;37.816;2024-03-22T02:00:41;49.25;46.29;55.80;;
74470;Laerm;62918;55.706;37.816;2024-03-22T02:01:11;49.83;45.95;52.89;;
74470;Laerm;62918;55.706;37.816;2024-03-22T02:01:42;49.15;46.30;52.33;;
74470;Laerm;62918;55.706;37.816;2024-03-22T02:02:12;49.29;46.43;52.71;;
74470;Laerm;62918;55.706;37.816;2024-03-22T02:02:43;49.58;46.20;52.96;;
74470;Laerm;62918;55.706;37.816;2024-03-22T02:03:13;49.05;45.32;53.63;;
74470;Laerm;62918;55.706;37.816;2024-03-22T02:03:44;52.23;46.82;59.65;;
74470;Laerm;62918;55.706;37.816;2024-03-22T02:04:14;64.14;51.85;72.62;;
74470;Laerm;62918;55.706;37.816;2024-03-22T02:04:45;52.78;46.94;61.79;;
74470;Laerm;62918;55.706;37.816;2024-03-22T02:05:17;61.56;49.48;69.55;;
74470;Laerm;62918;55.706;37.816;2024-03-22T02:05:51;54.72;48.76;61.62;;
74470;Laerm;62918;55.706;37.816;2024-03-22T02:06:22;52.13;46.29;58.17;;
74470;Laerm;62918;55.706;37.816;2024-03-22T02:06:52;49.14;46.45;51.40;;
74470;Laerm;62918;55.706;37.816;2024-03-22T02:07:24;50.57;47.66;55.00;;
74470;Laerm;62918;55.706;37.816;2024-03-22T02:07:55;56.79;49.52;63.52;;
74470;Laerm;62918;55.706;37.816;2024-03-22T02:08:25;60.20;48.84;67.21;;
74470;Laerm;62918;55.706;37.816;2024-03-22T02:08:56;57.38;51.62;64.21;;
74470;Laerm;62918;55.706;37.816;2024-03-22T02:09:28;54.39;48.53;59.26;;
74470;Laerm;62918;55.706;37.816;2024-03-22T02:09:58;62.82;52.25;69.01;;
74470;Laerm;62918;55.706;37.816;2024-03-22T02:10:29;59.92;52.54;73.62;;
74470;Laerm;62918;55.706;37.816;2024-03-22T02:10:59;62.28;57.01;71.41;;
74470;Laerm;62918;55.706;37.816;2024-03-22T02:11:30;61.25;56.36;66.86;;
74470;Laerm;62918;55.706;37.816;2024-03-22T02:12:02;57.75;49.48;65.83;;
74470;Laerm;62918;55.706;37.816;2024-03-22T02:12:32;56.37;48.51;64.03;;
74470;Laerm;62918;55.706;37.816;2024-03-22T02:13:03;63.31;49.63;70.58;;
74470;Laerm;62918;55.706;37.816;2024-03-22T02:13:34;54.75;49.63;68.22;;
74470;Laerm;62918;55.706;37.816;2024-03-22T02:14:05;53.83;48.69;60.29;;
74470;Laerm;62918;55.706;37.816;2024-03-22T02:14:35;55.77;50.22;63.93;;
74470;Laerm;62918;55.706;37.816;2024-03-22T02:15:07;61.72;49.98;68.95;;
74470;Laerm;62918;55.706;37.816;2024-03-22T02:15:38;59.27;52.47;65.84;;
74470;Laerm;62918;55.706;37.816;2024-03-22T02:16:09;61.67;55.26;66.23;;
74470;Laerm;62918;55.706;37.816;2024-03-22T02:16:40;60.75;55.31;66.73;;
74470;Laerm;62918;55.706;37.816;2024-03-22T02:17:11;57.86;53.50;62.74;;
74470;Laerm;62918;55.706;37.816;2024-03-22T02:17:41;57.54;52.30;69.57;;
74470;Laerm;62918;55.706;37.816;2024-03-22T02:18:12;63.15;53.90;71.79;;
74470;Laerm;62918;55.706;37.816;2024-03-22T02:18:42;62.13;51.98;72.93;;
74470;Laerm;62918;55.706;37.816;2024-03-22T02:19:14;55.70;48.91;62.26;;
74470;Laerm;62918;55.706;37.816;2024-03-22T02:19:45;59.11;52.94;63.80;;
74470;Laerm;62918;55.706;37.816;2024-03-22T02:20:15;54.88;48.84;61.31;;
74470;Laerm;62918;55.706;37.816;2024-03-22T02:20:46;48.77;45.91;51.71;;
74470;Laerm;62918;55.706;37.816;2024-03-22T02:21:16;53.08;47.73;59.57;;
74470;Laerm;62918;55.706;37.816;2024-03-22T02:21:47;56.36;51.73;62.92;;
74470;Laerm;62918;55.706;37.816;2024-03-22T02:22:17;58.11;48.69;64.56;;
74470;Laerm;62918;55.706;37.816;2024-03-22T02:22:48;52.33;47.45;56.35;;
74470;Laerm;62918;55.706;37.816;2024-03-22T02:23:26;58.86;49.13;67.42;;
74470;Laerm;62918;55.706;37.816;2024-03-22T02:23:57;55.97;48.55;61.31;;
74470;Laerm;62918;55.706;37.816;2024-03-22T02:24:27;52.57;49.01;57.44;;
74470;Laerm;62918;55.706;37.816;2024-03-22T02:24:58;52.37;46.97;58.22;;
74470;Laerm;62918;55.706;37.816;2024-03-22T02:25:28;57.90;50.62;65.08;;
74470;Laerm;62918;55.706;37.816;2024-03-22T02:25:59;55.88;51.83;59.16;;
74470;Laerm;62918;55.706;37.816;2024-03-22T02:26:30;56.77;50.44;62.23;;
74470;Laerm;62918;55.706;37.816;2024-03-22T02:27:01;59.74;51.95;67.63;;
74470;Laerm;62918;55.706;37.816;2024-03-22T02:27:31;63.34;53.61;69.16;;
74470;Laerm;62918;55.706;37.816;2024-03-22T02:28:02;56.90;48.96;64.80;;
74470;Laerm;62918;55.706;37.816;2024-03-22T02:28:34;53.13;47.09;59.31;;
74470;Laerm;62918;55.706;37.816;2024-03-22T02:29:05;49.57;45.95;55.44;;
74470;Laerm;62918;55.706;37.816;2024-03-22T02:29:36;52.82;48.17;58.65;;
74470;Laerm;62918;55.706;37.816;2024-03-22T02:30:07;62.92;53.39;71.65;;
74470;Laerm;62918;55.706;37.816;2024-03-22T02:30:38;55.28;48.94;62.14;;
74470;Laerm;62918;55.706;37.816;2024-03-22T02:31:08;54.50;47.09;61.11;;
74470;Laerm;62918;55.706;37.816;2024-03-22T02:31:39;52.75;47.97;57.62;;
74470;Laerm;62918;55.706;37.816;2024-03-22T02:32:09;53.25;49.38;61.94;;
74470;Laerm;62918;55.706;37.816;2024-03-22T02:32:40;56.55;51.75;61.09;;
74470;Laerm;62918;55.706;37.816;2024-03-22T02:33:11;54.69;48.43;60.45;;
74470;Laerm;62918;55.706;37.816;2024-03-22T02:33:41;58.35;48.19;66.91;;
74470;Laerm;62918;55.706;37.816;2024-03-22T02:34:12;57.81;50.21;65.10;;
74470;Laerm;62918;55.706;37.816;2024-03-22T02:34:42;58.90;51.96;66.16;;
74470;Laerm;62918;55.706;37.816;2024-03-22T02:35:13;58.54;47.87;65.10;;
74470;Laerm;62918;55.706;37.816;2024-03-22T02:35:46;60.87;46.36;69.68;;
74470;Laerm;62918;55.706;37.816;2024-03-22T02:36:17;66.02;58.86;72.27;;
74470;Laerm;62918;55.706;37.816;2024-03-22T02:36:47;65.02;56.96;70.64;;
74470;Laerm;62918;55.706;37.816;2024-03-22T02:37:18;65.24;53.07;72.23;;
74470;Laerm;62918;55.706;37.816;2024-03-22T02:37:48;57.39;52.35;64.42;;
74470;Laerm;62918;55.706;37.816;2024-03-22T02:38:19;54.07;49.31;58.72;;
74470;Laerm;62918;55.706;37.816;2024-03-22T02:38:49;60.53;51.20;67.00;;
74470;Laerm;62918;55.706;37.816;2024-03-22T02:39:20;64.12;50.70;71.29;;
74470;Laerm;62918;55.706;37.816;2024-03-22T02:39:50;54.47;49.68;57.84;;
74470;Laerm;62918;55.706;37.816;2024-03-22T02:40:21;53.69;48.58;68.69;;
74470;Laerm;62918;55.706;37.816;2024-03-22T02:40:54;53.13;48.70;58.63;;
74470;Laerm;62918;55.706;37.816;2024-03-22T02:41:25;50.89;48.04;53.71;;
74470;Laerm;62918;55.706;37.816;2024-03-22T02:41:55;55.61;48.59;63.05;;
74470;Laerm;62918;55.706;37.816;2024-03-22T02:42:26;52.51;49.38;57.00;;
74470;Laerm;62918;55.706;37.816;2024-03-22T02:42:57;55.28;51.22;59.88;;
74470;Laerm;62918;55.706;37.816;2024-03-22T02:43:27;54.56;49.83;63.79;;
74470;Laerm;62918;55.706;37.816;2024-03-22T02:43:58;56.62;50.80;68.15;;
74470;Laerm;62918;55.706;37.816;2024-03-22T02:44:28;57.38;49.18;61.98;;
74470;Laerm;62918;55.706;37.816;2024-03-22T02:44:59;56.04;49.70;64.11;;
74470;Laerm;62918;55.706;37.816;2024-03-22T02:45:30;59.35;54.30;65.55;;
74470;Laerm;62918;55.706;37.816;2024-03-22T02:46:01;55.86;50.44;62.77;;
74470;Laerm;62918;55.706;37.816;2024-03-22T02:46:32;64.06;51.47;69.58;;
74470;Laerm;62918;55.706;37.816;2024-03-22T02:47:03;56.61;50.79;65.88;;
74470;Laerm;62918;55.706;37.816;2024-03-22T02:47:33;59.08;52.44;63.62;;
74470;Laerm;62918;55.706;37.816;2024-03-22T02:48:05;61.47;53.71;65.15;;
74470;Laerm;62918;55.706;37.816;2024-03-22T02:48:35;59.00;52.62;62.84;;
74470;Laerm;62918;55.706;37.816;2024-03-22T02:49:06;55.37;50.48;62.55;;
74470;Laerm;62918;55.706;37.816;2024-03-22T02:49:38;58.44;51.05;65.54;;
74470;Laerm;62918;55.706;37.816;2024-03-22T02:50:09;53.05;48.50;60.93;;